createdAt,value
2018-01-03T00:01:56.998Z,1.57
2018-01-03T00:04:23.761Z,0.70
2018-01-03T00:06:50.527Z,1.00
2018-01-03T00:09:17.249Z,1.03
2018-01-03T00:11:43.937Z,1.23
2018-01-03T00:14:10.649Z,1.30
2018-01-03T00:16:37.344Z,1.23
2018-01-03T00:19:04.055Z,0.87
2018-01-03T00:21:30.755Z,1.27
2018-01-03T00:23:57.743Z,1.40
2018-01-03T00:26:24.444Z,1.10
2018-01-03T00:28:51.264Z,0.87
2018-01-03T00:31:17.981Z,2.37
2018-01-03T00:33:44.695Z,1.43
2018-01-03T00:36:11.412Z,2.70
2018-01-03T00:38:38.116Z,1.10
2018-01-03T00:41:04.815Z,1.30
2018-01-03T00:43:31.535Z,1.23
2018-01-03T00:45:58.238Z,1.90
2018-01-03T00:48:24.986Z,1.60
2018-01-03T00:50:51.684Z,0.67
2018-01-03T00:53:18.647Z,0.50
2018-01-03T00:55:45.326Z,1.03
2018-01-03T00:58:12.009Z,0.63
2018-01-03T01:00:38.745Z,0.60
2018-01-03T01:03:05.527Z,2.00
2018-01-03T01:05:32.233Z,0.70
2018-01-03T01:07:58.941Z,0.80
2018-01-03T01:10:25.646Z,0.60
2018-01-03T01:12:52.362Z,0.80
2018-01-03T01:15:19.040Z,1.13
2018-01-03T01:17:45.747Z,2.57
2018-01-03T01:20:12.447Z,0.60
2018-01-03T01:22:39.153Z,1.07
2018-01-03T01:25:05.890Z,1.73
2018-01-03T01:27:32.601Z,0.90
2018-01-03T01:29:59.285Z,3.00
2018-01-03T01:32:25.979Z,0.40
2018-01-03T01:34:52.727Z,0.47
2018-01-03T01:37:19.451Z,0.90
2018-01-03T01:39:46.146Z,1.23
2018-01-03T01:42:12.839Z,0.63
2018-01-03T01:44:39.539Z,1.03
2018-01-03T01:47:07.047Z,0.40
2018-01-03T01:49:33.754Z,1.27
2018-01-03T01:52:00.478Z,1.13
2018-01-03T01:54:27.225Z,0.80
2018-01-03T01:56:53.949Z,3.53
2018-01-03T01:59:20.699Z,0.60
2018-01-03T02:01:47.489Z,0.40
2018-01-03T02:04:14.199Z,0.80
2018-01-03T02:06:40.971Z,0.43
2018-01-03T02:09:07.697Z,0.87
2018-01-03T02:11:34.410Z,0.50
2018-01-03T02:14:01.127Z,0.80
2018-01-03T02:16:27.844Z,0.50
2018-01-03T02:18:54.599Z,0.50
2018-01-03T02:21:21.340Z,0.80
2018-01-03T02:23:48.073Z,0.57
2018-01-03T02:26:14.792Z,0.70
2018-01-03T02:28:41.493Z,0.60
2018-01-03T02:31:08.199Z,0.60
2018-01-03T02:33:34.880Z,0.57
2018-01-03T02:36:01.619Z,0.40
2018-01-03T02:38:31.026Z,0.50
2018-01-03T02:40:57.754Z,0.60
2018-01-03T02:43:24.454Z,0.60
2018-01-03T02:45:51.154Z,0.60
2018-01-03T02:48:17.847Z,0.57
2018-01-03T02:50:44.548Z,0.47
2018-01-03T02:53:11.250Z,1.57
2018-01-03T02:55:37.953Z,0.60
2018-01-03T02:58:04.699Z,0.57
2018-01-03T03:00:31.376Z,0.70
2018-01-03T03:02:58.112Z,0.50
2018-01-03T03:05:24.820Z,0.70
2018-01-03T03:07:51.584Z,1.50
2018-01-03T03:10:18.325Z,0.40
2018-01-03T03:12:45.003Z,0.50
2018-01-03T03:15:11.705Z,0.50
2018-01-03T03:17:38.448Z,0.90
2018-01-03T03:20:05.146Z,1.60
2018-01-03T03:22:31.881Z,0.83
2018-01-03T03:24:58.557Z,1.80
2018-01-03T03:27:25.255Z,0.50
2018-01-03T03:29:51.963Z,0.40
2018-01-03T03:32:18.683Z,0.40
2018-01-03T03:34:45.416Z,0.50
2018-01-03T03:37:12.166Z,0.60
2018-01-03T03:39:38.870Z,0.50
2018-01-03T03:42:05.548Z,0.50
2018-01-03T03:44:32.247Z,0.50
2018-01-03T03:46:58.935Z,0.43
2018-01-03T03:49:25.657Z,0.93
2018-01-03T03:51:52.354Z,0.87
2018-01-03T03:54:19.096Z,0.50
2018-01-03T03:56:45.920Z,0.50
2018-01-03T03:59:12.646Z,0.70
2018-01-03T04:01:39.309Z,0.50
2018-01-03T04:04:06.011Z,1.70
2018-01-03T04:06:33.167Z,0.50
2018-01-03T04:08:59.860Z,0.93
2018-01-03T04:11:26.561Z,0.80
2018-01-03T04:13:53.257Z,0.50
2018-01-03T04:16:19.929Z,0.40
2018-01-03T04:18:46.653Z,0.40
2018-01-03T04:21:13.326Z,0.70
2018-01-03T04:23:40.006Z,0.90
2018-01-03T04:26:06.699Z,0.70
2018-01-03T04:28:33.381Z,0.90
2018-01-03T04:31:00.525Z,3.20
2018-01-03T04:33:27.255Z,0.40
2018-01-03T04:35:53.975Z,0.40
2018-01-03T04:38:21.353Z,0.40
2018-01-03T04:40:48.055Z,0.93
2018-01-03T04:43:14.755Z,0.40
2018-01-03T04:45:41.484Z,0.43
2018-01-03T04:48:08.187Z,1.13
2018-01-03T04:50:34.931Z,0.40
2018-01-03T04:53:01.609Z,0.40
2018-01-03T04:55:28.293Z,0.77
2018-01-03T04:57:55.005Z,1.53
2018-01-03T05:00:21.757Z,0.70
2018-01-03T05:02:48.497Z,0.60
2018-01-03T05:05:15.261Z,0.50
2018-01-03T05:07:41.962Z,0.70
2018-01-03T05:10:08.652Z,0.37
2018-01-03T05:12:35.457Z,0.40
2018-01-03T05:15:02.152Z,1.53
2018-01-03T05:17:29.630Z,3.33
2018-01-03T05:19:56.343Z,0.60
2018-01-03T05:22:23.161Z,0.40
2018-01-03T05:24:49.864Z,0.50
2018-01-03T05:27:16.546Z,2.70
2018-01-03T05:29:43.446Z,0.40
2018-01-03T05:32:10.144Z,2.80
2018-01-03T05:34:36.927Z,0.67
2018-01-03T05:37:03.633Z,0.43
2018-01-03T05:39:30.476Z,0.40
2018-01-03T05:42:02.254Z,0.60
2018-01-03T05:44:29.886Z,0.40
2018-01-03T05:46:56.568Z,1.50
2018-01-03T05:49:23.437Z,2.97
2018-01-03T05:51:50.150Z,0.87
2018-01-03T05:54:16.877Z,0.90
2018-01-03T05:56:43.639Z,0.50
2018-01-03T05:59:11.138Z,0.70
2018-01-03T06:01:39.252Z,1.63
2018-01-03T06:04:05.988Z,0.87
2018-01-03T06:06:33.680Z,3.70
2018-01-03T06:09:00.362Z,0.67
2018-01-03T06:11:27.081Z,1.37
2018-01-03T06:13:53.793Z,0.40
2018-01-03T06:16:20.462Z,0.40
2018-01-03T06:18:47.244Z,0.40
2018-01-03T06:21:13.941Z,0.40
2018-01-03T06:23:40.645Z,2.20
2018-01-03T06:26:07.351Z,0.30
2018-01-03T06:28:34.109Z,0.30
2018-01-03T06:31:00.817Z,0.40
2018-01-03T06:33:27.499Z,1.03
2018-01-03T06:35:54.242Z,1.00
2018-01-03T06:38:20.934Z,0.77
2018-01-03T06:40:47.644Z,0.40
2018-01-03T06:43:14.925Z,5.93
2018-01-03T06:45:41.665Z,0.73
2018-01-03T06:48:08.561Z,0.50
2018-01-03T06:50:35.667Z,0.90
2018-01-03T06:53:02.532Z,1.40
2018-01-03T06:55:29.210Z,1.20
2018-01-03T06:57:55.926Z,1.57
2018-01-03T07:00:24.951Z,1.77
2018-01-03T07:02:51.803Z,1.80
2018-01-03T07:05:18.531Z,2.93
2018-01-03T07:07:45.264Z,1.17
2018-01-03T07:10:12.142Z,3.07
2018-01-03T07:12:38.829Z,0.93
2018-01-03T07:15:05.569Z,4.40
2018-01-03T07:17:32.267Z,3.70
2018-01-03T07:22:41.516Z,1.57
2018-01-03T07:25:08.224Z,4.33
2018-01-03T07:27:34.947Z,2.80
2018-01-03T07:30:01.623Z,2.00
2018-01-03T07:32:28.364Z,1.17
2018-01-03T07:34:55.132Z,3.43
2018-01-03T07:37:21.840Z,1.97
2018-01-03T07:39:48.566Z,2.50
2018-01-03T07:42:15.322Z,2.87
2018-01-03T07:44:42.162Z,4.00
2018-01-03T07:47:08.896Z,4.70
2018-01-03T07:49:35.584Z,1.93
2018-01-03T07:52:02.319Z,6.73
2018-01-03T07:54:29.076Z,4.23
2018-01-03T07:56:55.808Z,3.20
2018-01-03T07:59:22.504Z,2.23
2018-01-03T08:01:49.250Z,2.13
2018-01-03T08:04:16.548Z,2.57
2018-01-03T08:06:43.316Z,2.93
2018-01-03T08:09:10.078Z,4.30
2018-01-03T08:11:36.814Z,4.63
2018-01-03T08:14:04.814Z,4.70
2018-01-03T08:24:59.587Z,4.50
2018-01-03T08:27:26.637Z,4.83
2018-01-03T08:29:53.698Z,6.47
2018-01-03T08:32:20.437Z,3.30
2018-01-03T08:34:47.126Z,5.70
2018-01-03T08:37:13.878Z,3.70
2018-01-03T08:39:41.115Z,4.40
2018-01-03T08:42:07.811Z,2.80
2018-01-03T08:44:34.511Z,3.57
2018-01-03T08:47:01.327Z,2.00
2018-01-03T08:49:28.026Z,4.77
2018-01-03T08:51:54.777Z,2.50
2018-01-03T08:54:21.781Z,1.80
2018-01-03T08:56:48.497Z,1.17
2018-01-03T08:59:15.276Z,3.73
2018-01-03T09:01:42.015Z,1.27
2018-01-03T09:04:08.704Z,2.60
2018-01-03T09:06:35.468Z,1.50
2018-01-03T09:09:02.188Z,1.27
2018-01-03T09:11:28.897Z,1.80
2018-01-03T09:13:55.601Z,1.77
2018-01-03T09:16:23.798Z,1.20
2018-01-03T09:19:10.165Z,1.83
2018-01-03T09:21:37.135Z,0.90
2018-01-03T09:24:03.889Z,1.20
2018-01-03T09:26:30.643Z,1.80
2018-01-03T09:28:57.963Z,1.10
2018-01-03T09:31:24.994Z,0.80
2018-01-03T09:33:51.721Z,1.43
2018-01-03T09:36:18.465Z,1.10
2018-01-03T09:38:45.178Z,1.57
2018-01-03T09:41:11.872Z,2.53
2018-01-03T09:43:38.632Z,1.23
2018-01-03T09:46:05.346Z,1.60
2018-01-03T09:48:32.079Z,0.60
2018-01-03T09:50:58.803Z,1.70
2018-01-03T09:53:25.501Z,3.03
2018-01-03T09:55:52.183Z,1.43
2018-01-03T09:58:18.894Z,3.27
2018-01-03T10:00:46.684Z,1.33
2018-01-03T10:03:13.405Z,0.47
2018-01-03T10:05:40.113Z,1.70
2018-01-03T10:08:06.839Z,1.07
2018-01-03T10:10:33.524Z,2.07
2018-01-03T10:13:00.319Z,0.50
2018-01-03T10:15:27.799Z,0.67
2018-01-03T10:17:54.647Z,0.50
2018-01-03T10:20:21.431Z,1.57
2018-01-03T10:22:48.172Z,0.60
2018-01-03T10:25:15.500Z,0.50
2018-01-03T10:27:42.507Z,1.00
2018-01-03T10:30:10.136Z,1.00
2018-01-03T10:32:36.881Z,0.77
2018-01-03T10:35:03.629Z,0.93
2018-01-03T10:37:30.382Z,0.73
2018-01-03T10:39:57.091Z,1.03
2018-01-03T10:42:23.832Z,0.70
2018-01-03T10:44:50.531Z,1.80
2018-01-03T10:47:17.212Z,2.93
2018-01-03T10:49:43.977Z,2.00
2018-01-03T10:52:10.697Z,0.87
2018-01-03T10:54:37.418Z,1.33
2018-01-03T10:57:04.139Z,1.23
2018-01-03T10:59:32.792Z,2.13
2018-01-03T11:02:01.602Z,2.53
2018-01-03T11:04:28.392Z,3.43
2018-01-03T11:06:55.137Z,1.43
2018-01-03T11:09:22.834Z,1.97
2018-01-03T11:11:50.234Z,3.03
2018-01-03T11:14:16.934Z,4.43
2018-01-03T11:16:43.717Z,4.03
2018-01-03T11:19:10.540Z,4.00
2018-01-03T11:21:37.261Z,6.30
2018-01-03T11:24:04.806Z,6.23
2018-01-03T11:26:31.575Z,4.73
2018-01-03T11:28:58.298Z,3.83
2018-01-03T11:31:25.050Z,7.60
2018-01-03T11:33:52.737Z,8.33
2018-01-03T11:36:19.427Z,6.43
2018-01-03T11:38:46.129Z,4.57
2018-01-03T11:41:13.188Z,5.70
2018-01-03T11:43:40.011Z,5.83
2018-01-03T11:46:06.755Z,6.57
2018-01-03T11:48:33.492Z,3.97
2018-01-03T11:51:00.261Z,4.90
2018-01-03T11:53:26.971Z,3.33
2018-01-03T11:55:53.718Z,3.73
2018-01-03T11:58:20.416Z,4.67
2018-01-03T12:00:47.089Z,7.20
2018-01-03T12:03:13.831Z,5.07
2018-01-03T12:05:46.574Z,3.70
2018-01-03T12:08:13.354Z,5.77
2018-01-03T12:10:40.126Z,6.60
2018-01-03T12:13:06.942Z,5.10
2018-01-03T12:15:33.676Z,3.83
2018-01-03T12:18:00.392Z,7.53
2018-01-03T12:20:27.162Z,5.17
2018-01-03T12:22:53.891Z,5.70
2018-01-03T12:25:20.654Z,12.93
2018-01-03T12:27:47.374Z,8.17
2018-01-03T12:30:14.062Z,3.90
2018-01-03T12:32:40.762Z,5.57
2018-01-03T12:35:07.490Z,3.40
2018-01-03T12:37:34.222Z,3.77
2018-01-03T12:40:00.947Z,5.73
2018-01-03T12:42:27.680Z,6.73
2018-01-03T12:44:54.481Z,5.30
2018-01-03T12:47:21.224Z,10.67
2018-01-03T12:49:47.974Z,7.07
2018-01-03T12:52:14.764Z,5.03
2018-01-03T12:54:41.556Z,12.87
2018-01-03T12:57:08.275Z,5.83
2018-01-03T12:59:35.428Z,11.53
2018-01-03T13:02:02.199Z,7.90
2018-01-03T13:04:28.950Z,11.37
2018-01-03T13:06:55.650Z,8.70
2018-01-03T13:09:23.659Z,6.23
2018-01-03T13:11:50.399Z,10.00
2018-01-03T13:14:17.103Z,9.50
2018-01-03T13:16:43.861Z,9.70
2018-01-03T13:19:10.560Z,8.47
2018-01-03T13:21:37.303Z,10.47
2018-01-03T13:24:04.025Z,16.13
2018-01-03T13:26:30.776Z,9.10
2018-01-03T13:28:57.508Z,10.27
2018-01-03T13:31:24.230Z,10.53
2018-01-03T13:33:51.007Z,13.63
2018-01-03T13:36:18.084Z,11.20
2018-01-03T13:38:45.130Z,9.87
2018-01-03T13:41:12.230Z,12.13
2018-01-03T13:43:43.845Z,14.90
2018-01-03T13:46:19.174Z,9.97
2018-01-03T13:48:45.887Z,7.33
2018-01-03T13:51:12.597Z,8.63
2018-01-03T13:53:39.306Z,7.80
2018-01-03T13:56:06.000Z,7.33
2018-01-03T13:58:32.689Z,12.90
2018-01-03T14:06:04.343Z,11.33
2018-01-03T14:08:35.806Z,9.10
2018-01-03T14:11:04.101Z,7.00
2018-01-03T14:13:30.834Z,9.43
2018-01-03T14:15:57.531Z,10.43
2018-01-03T14:18:26.244Z,7.43
2018-01-03T14:20:56.793Z,10.93
2018-01-03T14:23:23.511Z,7.60
2018-01-03T14:25:50.213Z,10.20
2018-01-03T14:28:17.033Z,7.57
2018-01-03T14:30:43.887Z,8.30
2018-01-03T14:33:10.730Z,11.40
2018-01-03T14:35:37.471Z,8.67
2018-01-03T14:38:04.193Z,12.80
2018-01-03T14:40:30.927Z,6.63
2018-01-03T14:42:57.696Z,5.50
2018-01-03T14:45:24.406Z,6.03
2018-01-03T14:47:51.151Z,6.53
2018-01-03T14:50:17.840Z,10.00
2018-01-03T14:52:44.606Z,14.97
2018-01-03T14:55:11.306Z,7.07
2018-01-03T14:57:40.302Z,7.83
2018-01-03T15:00:07.223Z,8.10
2018-01-03T15:02:33.926Z,9.90
2018-01-03T15:05:00.614Z,8.43
2018-01-03T15:07:27.332Z,11.27
2018-01-03T15:09:54.014Z,10.27
2018-01-03T15:12:21.264Z,9.67
2018-01-03T15:17:19.329Z,10.20
2018-01-03T15:19:46.137Z,7.20
2018-01-03T15:22:12.839Z,7.50
2018-01-03T15:24:39.720Z,13.83
2018-01-03T15:27:06.420Z,10.23
2018-01-03T15:29:33.130Z,9.73
2018-01-03T15:31:59.845Z,12.70
2018-01-03T15:34:26.554Z,7.73
2018-01-03T15:36:53.280Z,8.97
2018-01-03T15:39:20.007Z,7.07
2018-01-03T15:41:46.737Z,8.53
2018-01-03T15:44:13.496Z,10.23
2018-01-03T15:46:40.175Z,7.77
2018-01-03T15:51:42.543Z,10.07
2018-01-03T15:54:09.285Z,11.83
2018-01-03T15:56:36.068Z,15.67
2018-01-03T15:59:02.778Z,10.30
2018-01-03T16:01:29.458Z,10.00
2018-01-03T16:04:05.363Z,12.33
2018-01-03T16:06:32.148Z,11.37
2018-01-03T16:09:06.940Z,14.10
2018-01-03T16:11:39.579Z,8.67
2018-01-03T16:14:12.967Z,12.40
2018-01-03T16:16:39.698Z,12.70
2018-01-03T16:19:06.415Z,8.87
2018-01-03T16:21:33.171Z,9.63
2018-01-03T16:23:59.851Z,9.70
2018-01-03T16:26:26.557Z,7.23
2018-01-03T16:28:53.296Z,9.20
2018-01-03T16:31:20.033Z,14.97
2018-01-03T16:33:47.404Z,8.00
2018-01-03T16:36:14.096Z,14.37
2018-01-03T16:38:40.804Z,7.37
2018-01-03T16:41:07.584Z,8.50
2018-01-03T16:43:34.288Z,8.63
2018-01-03T16:46:01.117Z,9.30
2018-01-03T16:48:27.954Z,8.97
2018-01-03T16:50:54.655Z,10.20
2018-01-03T16:53:21.433Z,9.20
2018-01-03T16:55:48.164Z,11.37
2018-01-03T17:01:00.433Z,11.57
2018-01-03T17:03:27.199Z,10.60
2018-01-03T17:05:54.006Z,11.60
2018-01-03T17:08:20.752Z,9.00
2018-01-03T17:10:47.754Z,14.00
2018-01-03T17:13:14.637Z,10.70
2018-01-03T17:15:42.082Z,9.93
2018-01-03T17:18:09.513Z,14.17
2018-01-03T17:20:36.257Z,8.20
2018-01-03T17:23:04.474Z,14.07
2018-01-03T17:25:31.243Z,14.43
2018-01-03T17:27:57.979Z,15.03
2018-01-03T17:30:24.700Z,9.80
2018-01-03T17:32:51.436Z,13.10
2018-01-03T17:37:54.992Z,14.73
2018-01-03T17:40:24.273Z,9.80
2018-01-03T17:42:51.349Z,14.07
2018-01-03T17:45:18.162Z,17.77
2018-01-03T17:47:45.824Z,10.67
2018-01-03T17:50:12.586Z,10.50
2018-01-03T17:52:39.301Z,18.87
2018-01-03T17:55:07.208Z,19.57
2018-01-03T17:57:33.944Z,10.17
2018-01-03T18:00:01.007Z,14.00
2018-01-03T18:02:27.829Z,12.27
2018-01-03T18:04:54.681Z,8.33
2018-01-03T18:07:21.424Z,15.00
2018-01-03T18:09:49.131Z,11.63
2018-01-03T18:12:15.895Z,9.13
2018-01-03T18:14:42.979Z,8.17
2018-01-03T18:17:09.838Z,11.70
2018-01-03T18:19:36.707Z,7.37
2018-01-03T18:22:09.370Z,12.73
2018-01-03T18:24:36.158Z,11.03
2018-01-03T18:27:02.974Z,15.63
2018-01-03T18:29:29.708Z,13.77
2018-01-03T18:31:56.377Z,12.90
2018-01-03T18:34:23.335Z,9.27
2018-01-03T18:36:50.119Z,11.17
2018-01-03T18:39:21.433Z,10.60
2018-01-03T18:44:23.541Z,11.43
2018-01-03T18:46:59.367Z,15.57
2018-01-03T18:49:26.177Z,12.47
2018-01-03T18:51:52.910Z,11.73
2018-01-03T18:54:19.874Z,14.80
2018-01-03T18:56:46.702Z,10.13
2018-01-03T18:59:13.456Z,12.40
2018-01-03T19:01:40.513Z,6.50
2018-01-03T19:04:07.298Z,6.87
2018-01-03T19:06:35.281Z,9.30
2018-01-03T19:09:02.233Z,11.90
2018-01-03T19:11:29.022Z,10.67
2018-01-03T19:13:56.743Z,15.27
2018-01-03T19:16:23.986Z,9.33
2018-01-03T19:18:50.759Z,16.40
2018-01-03T19:21:17.491Z,16.13
2018-01-03T19:23:44.216Z,6.80
2018-01-03T19:26:10.888Z,15.07
2018-01-03T19:28:37.585Z,11.20
2018-01-03T19:31:04.468Z,11.33
2018-01-03T19:33:31.176Z,14.30
2018-01-03T19:35:57.918Z,10.30
2018-01-03T19:38:24.676Z,10.60
2018-01-03T19:40:51.406Z,12.30
2018-01-03T19:43:18.294Z,11.90
2018-01-03T19:45:45.062Z,10.87
2018-01-03T19:48:11.874Z,15.43
2018-01-03T19:50:38.628Z,10.73
2018-01-03T19:53:05.630Z,13.60
2018-01-03T19:55:32.444Z,11.67
2018-01-03T19:57:59.258Z,10.20
2018-01-03T20:00:26.096Z,13.10
2018-01-03T20:02:52.804Z,16.90
2018-01-03T20:05:19.616Z,12.83
2018-01-03T20:07:46.395Z,13.93
2018-01-03T20:10:13.632Z,11.63
2018-01-03T20:12:40.423Z,15.63
2018-01-03T20:15:07.839Z,15.00
2018-01-03T20:17:34.609Z,9.73
2018-01-03T20:20:02.185Z,9.83
2018-01-03T20:22:29.845Z,17.10
2018-01-03T20:24:56.647Z,15.90
2018-01-03T20:27:23.341Z,17.47
2018-01-03T20:29:50.112Z,17.63
2018-01-03T20:32:16.900Z,11.77
2018-01-03T20:34:43.760Z,14.50
2018-01-03T20:37:12.008Z,13.87
2018-01-03T20:39:38.705Z,10.80
2018-01-03T20:42:05.456Z,15.90
2018-01-03T20:44:32.219Z,16.43
2018-01-03T20:46:58.937Z,12.30
2018-01-03T20:49:25.770Z,18.77
2018-01-03T20:51:52.506Z,16.10
2018-01-03T20:54:19.226Z,17.20
2018-01-03T20:56:46.291Z,15.60
2018-01-03T20:59:13.077Z,22.70
2018-01-03T21:01:39.820Z,14.30
2018-01-03T21:04:06.712Z,12.23
2018-01-03T21:06:33.543Z,9.93
2018-01-03T21:09:00.320Z,10.23
2018-01-03T21:11:27.046Z,11.33
2018-01-03T21:13:53.941Z,13.67
2018-01-03T21:16:20.748Z,8.93
2018-01-03T21:18:47.616Z,21.80
2018-01-03T21:21:14.382Z,16.00
2018-01-03T21:23:41.990Z,19.20
2018-01-03T21:26:08.794Z,14.07
2018-01-03T21:28:35.574Z,14.50
2018-01-03T21:31:02.336Z,18.20
2018-01-03T21:33:29.153Z,11.07
2018-01-03T21:35:55.952Z,15.20
2018-01-03T21:38:23.401Z,16.10
2018-01-03T21:40:50.201Z,14.93
2018-01-03T21:43:16.987Z,12.33
2018-01-03T21:45:43.745Z,15.63
2018-01-03T21:48:10.696Z,13.40
2018-01-03T21:50:37.453Z,11.63
2018-01-03T21:53:04.220Z,12.23
2018-01-03T21:55:31.049Z,15.20
2018-01-03T21:57:57.902Z,14.73
2018-01-03T22:00:24.628Z,12.90
2018-01-03T22:02:51.423Z,13.27
2018-01-03T22:05:18.198Z,10.73
2018-01-03T22:07:44.967Z,10.93
2018-01-03T22:10:11.846Z,10.00
2018-01-03T22:12:38.699Z,13.03
2018-01-03T22:15:05.476Z,10.53
2018-01-03T22:17:32.226Z,14.80
2018-01-03T22:19:59.132Z,10.17
2018-01-03T22:22:25.891Z,13.80
2018-01-03T22:24:52.669Z,11.83
2018-01-03T22:27:19.592Z,12.73
2018-01-03T22:29:46.373Z,11.27
2018-01-03T22:32:13.112Z,11.27
2018-01-03T22:34:39.890Z,10.43
2018-01-03T22:37:06.738Z,16.00
2018-01-03T22:39:33.465Z,16.47
2018-01-03T22:42:00.244Z,16.10
2018-01-03T22:44:26.996Z,17.77
2018-01-03T22:46:53.752Z,13.83
2018-01-03T22:49:21.027Z,12.17
2018-01-03T22:51:47.902Z,9.80
2018-01-03T22:54:14.654Z,11.00
2018-01-03T22:56:41.596Z,16.50
2018-01-03T22:59:08.441Z,10.07
2018-01-03T23:01:35.259Z,15.17
2018-01-03T23:04:02.027Z,9.90
2018-01-03T23:06:28.771Z,17.07
2018-01-03T23:08:55.672Z,9.83
2018-01-03T23:11:22.435Z,13.67
2018-01-03T23:13:49.129Z,11.93
2018-01-03T23:16:15.995Z,13.00
2018-01-03T23:18:43.012Z,6.57
2018-01-03T23:21:10.247Z,10.97
2018-01-03T23:23:37.087Z,11.00
2018-01-03T23:26:03.908Z,13.00
2018-01-03T23:28:30.715Z,13.00
2018-01-03T23:30:57.412Z,12.07
2018-01-03T23:33:24.212Z,17.13
2018-01-03T23:35:50.914Z,14.13
2018-01-03T23:38:17.985Z,10.20
2018-01-03T23:40:44.714Z,12.20
2018-01-03T23:43:11.509Z,10.50
2018-01-03T23:45:38.252Z,15.37
2018-01-03T23:48:05.014Z,12.53
2018-01-03T23:50:31.746Z,17.50
2018-01-03T23:52:58.460Z,10.53
2018-01-03T23:55:25.194Z,11.33
2018-01-03T23:57:51.965Z,13.60
